Terminal Aerodrome Forecast
Issued by NWS

Home | Current Version | Previous Version | Text Only | Print | Product List | Glossary On
Versions: 1 2 3 4 5 6 7 8 9 10 11 12
000
FTUS44 KJAN 220500
TAFHKS
TAF
KHKS 220520Z 2206/2306 00000KT P6SM BKN070
     FM220730 34006KT P6SM VCSH BKN050 BKN100
     FM221500 01010G17KT P6SM SKC
     FM230100 35005KT P6SM SKC=

USA.gov is the U.S. government's official web portal to all federal, state and local government web resources and services.